sensor_id;sensor_type;location;lat;lon;timestamp;pressure;altitude;pressure_sealevel;temperature;humidity
66664;BME280;59683;51.428;-1.994;2023-03-13T01:12:32;98608.47;;;10.56;100.00
66664;BME280;59683;51.428;-1.994;2023-03-13T01:14:58;98612.91;;;10.63;100.00
66664;BME280;59683;51.428;-1.994;2023-03-13T01:17:23;98623.81;;;10.60;100.00
66664;BME280;59683;51.428;-1.994;2023-03-13T01:19:48;98609.75;;;10.60;100.00
66664;BME280;59683;51.428;-1.994;2023-03-13T01:22:14;98615.56;;;10.55;100.00
66664;BME280;59683;51.428;-1.994;2023-03-13T01:24:39;98606.16;;;10.53;100.00
66664;BME280;59683;51.428;-1.994;2023-03-13T01:27:05;98599.19;;;10.60;100.00
66664;BME280;59683;51.428;-1.994;2023-03-13T01:29:30;98605.78;;;10.64;100.00
66664;BME280;59683;51.428;-1.994;2023-03-13T01:31:56;98598.84;;;10.63;100.00
66664;BME280;59683;51.428;-1.994;2023-03-13T01:34:21;98584.97;;;10.61;100.00
66664;BME280;59683;51.428;-1.994;2023-03-13T01:36:46;98581.97;;;10.64;100.00
66664;BME280;59683;51.428;-1.994;2023-03-13T01:39:14;98583.47;;;10.66;100.00
66664;BME280;59683;51.428;-1.994;2023-03-13T01:41:40;98578.66;;;10.70;100.00
66664;BME280;59683;51.428;-1.994;2023-03-13T01:44:19;98558.34;;;10.62;100.00
66664;BME280;59683;51.428;-1.994;2023-03-13T01:46:45;98562.63;;;10.63;100.00
66664;BME280;59683;51.428;-1.994;2023-03-13T01:49:17;98569.59;;;10.64;100.00
66664;BME280;59683;51.428;-1.994;2023-03-13T01:51:54;98558.63;;;10.67;100.00
66664;BME280;59683;51.428;-1.994;2023-03-13T01:54:27;98546.13;;;10.61;100.00
66664;BME280;59683;51.428;-1.994;2023-03-13T01:57:16;98550.69;;;10.67;100.00
66664;BME280;59683;51.428;-1.994;2023-03-13T01:59:43;98553.88;;;10.63;100.00
66664;BME280;59683;51.428;-1.994;2023-03-13T02:02:10;98541.59;;;10.70;100.00
66664;BME280;59683;51.428;-1.994;2023-03-13T02:04:47;98527.22;;;10.73;100.00
66664;BME280;59683;51.428;-1.994;2023-03-13T02:07:25;98535.16;;;10.73;100.00
66664;BME280;59683;51.428;-1.994;2023-03-13T02:09:53;98543.56;;;10.76;100.00
66664;BME280;59683;51.428;-1.994;2023-03-13T02:12:28;98536.09;;;10.80;100.00
66664;BME280;59683;51.428;-1.994;2023-03-13T02:14:57;98538.56;;;10.81;100.00
66664;BME280;59683;51.428;-1.994;2023-03-13T02:17:24;98536.94;;;10.80;100.00
66664;BME280;59683;51.428;-1.994;2023-03-13T02:19:50;98519.38;;;10.79;100.00
66664;BME280;59683;51.428;-1.994;2023-03-13T02:22:40;98511.44;;;10.79;100.00
66664;BME280;59683;51.428;-1.994;2023-03-13T02:27:56;98528.16;;;10.80;100.00
66664;BME280;59683;51.428;-1.994;2023-03-13T02:30:23;98518.28;;;10.74;100.00
66664;BME280;59683;51.428;-1.994;2023-03-13T02:32:49;98534.09;;;10.82;100.00
66664;BME280;59683;51.428;-1.994;2023-03-13T02:35:17;98531.44;;;10.82;100.00
66664;BME280;59683;51.428;-1.994;2023-03-13T02:37:53;98521.41;;;10.77;100.00
66664;BME280;59683;51.428;-1.994;2023-03-13T02:40:23;98508.81;;;10.79;100.00
66664;BME280;59683;51.428;-1.994;2023-03-13T02:42:51;98522.69;;;10.81;100.00
66664;BME280;59683;51.428;-1.994;2023-03-13T02:45:17;98511.28;;;10.81;100.00
66664;BME280;59683;51.428;-1.994;2023-03-13T02:47:43;98508.16;;;10.77;100.00
66664;BME280;59683;51.428;-1.994;2023-03-13T02:50:09;98507.97;;;10.79;100.00
66664;BME280;59683;51.428;-1.994;2023-03-13T02:52:37;98500.56;;;10.74;100.00
66664;BME280;59683;51.428;-1.994;2023-03-13T02:55:13;98501.38;;;10.75;100.00
66664;BME280;59683;51.428;-1.994;2023-03-13T02:57:42;98504.34;;;10.80;100.00
66664;BME280;59683;51.428;-1.994;2023-03-13T03:00:08;98490.34;;;10.71;100.00
66664;BME280;59683;51.428;-1.994;2023-03-13T03:02:36;98484.06;;;10.72;100.00
66664;BME280;59683;51.428;-1.994;2023-03-13T03:05:02;98487.19;;;10.76;100.00
66664;BME280;59683;51.428;-1.994;2023-03-13T03:07:28;98478.78;;;10.72;100.00
66664;BME280;59683;51.428;-1.994;2023-03-13T03:09:54;98477.91;;;10.72;100.00
66664;BME280;59683;51.428;-1.994;2023-03-13T03:12:19;98472.63;;;10.72;100.00
66664;BME280;59683;51.428;-1.994;2023-03-13T03:14:45;98464.59;;;10.65;100.00
66664;BME280;59683;51.428;-1.994;2023-03-13T03:17:10;98458.28;;;10.66;100.00
66664;BME280;59683;51.428;-1.994;2023-03-13T03:19:36;98473.00;;;10.68;100.00
66664;BME280;59683;51.428;-1.994;2023-03-13T03:22:01;98459.41;;;10.72;100.00
66664;BME280;59683;51.428;-1.994;2023-03-13T03:24:27;98447.66;;;10.74;100.00
66664;BME280;59683;51.428;-1.994;2023-03-13T03:26:52;98440.25;;;10.69;100.00
66664;BME280;59683;51.428;-1.994;2023-03-13T03:29:18;98438.44;;;10.70;100.00
66664;BME280;59683;51.428;-1.994;2023-03-13T03:31:43;98429.53;;;10.63;100.00
66664;BME280;59683;51.428;-1.994;2023-03-13T03:34:08;98418.47;;;10.59;100.00
66664;BME280;59683;51.428;-1.994;2023-03-13T03:36:34;98423.44;;;10.62;100.00
66664;BME280;59683;51.428;-1.994;2023-03-13T03:38:59;98422.78;;;10.60;100.00
66664;BME280;59683;51.428;-1.994;2023-03-13T03:41:25;98427.19;;;10.68;100.00
66664;BME280;59683;51.428;-1.994;2023-03-13T03:43:50;98416.16;;;10.64;100.00
66664;BME280;59683;51.428;-1.994;2023-03-13T03:46:16;98391.22;;;10.59;100.00
66664;BME280;59683;51.428;-1.994;2023-03-13T03:48:41;98386.59;;;10.61;100.00
66664;BME280;59683;51.428;-1.994;2023-03-13T03:51:07;98386.28;;;10.56;100.00
66664;BME280;59683;51.428;-1.994;2023-03-13T03:53:33;98369.38;;;10.57;100.00
66664;BME280;59683;51.428;-1.994;2023-03-13T03:55:58;98371.53;;;10.61;100.00
66664;BME280;59683;51.428;-1.994;2023-03-13T03:58:24;98353.25;;;10.52;100.00
66664;BME280;59683;51.428;-1.994;2023-03-13T04:00:49;98360.47;;;10.58;100.00
66664;BME280;59683;51.428;-1.994;2023-03-13T04:03:15;98355.72;;;10.53;100.00
66664;BME280;59683;51.428;-1.994;2023-03-13T04:05:41;98338.84;;;10.54;100.00
66664;BME280;59683;51.428;-1.994;2023-03-13T04:08:08;98339.66;;;10.55;100.00
66664;BME280;59683;51.428;-1.994;2023-03-13T04:10:34;98346.31;;;10.51;100.00
66664;BME280;59683;51.428;-1.994;2023-03-13T04:13:00;98335.53;;;10.52;100.00
66664;BME280;59683;51.428;-1.994;2023-03-13T04:15:25;98334.09;;;10.50;100.00
66664;BME280;59683;51.428;-1.994;2023-03-13T04:17:50;98341.50;;;10.54;100.00
66664;BME280;59683;51.428;-1.994;2023-03-13T04:20:16;98336.69;;;10.58;100.00
66664;BME280;59683;51.428;-1.994;2023-03-13T04:22:42;98344.25;;;10.61;100.00
66664;BME280;59683;51.428;-1.994;2023-03-13T04:25:08;98332.47;;;10.63;100.00
66664;BME280;59683;51.428;-1.994;2023-03-13T04:27:34;98359.94;;;10.62;100.00
66664;BME280;59683;51.428;-1.994;2023-03-13T04:30:00;98350.38;;;10.61;100.00
66664;BME280;59683;51.428;-1.994;2023-03-13T04:32:25;98359.59;;;10.65;100.00
66664;BME280;59683;51.428;-1.994;2023-03-13T04:34:51;98358.31;;;10.61;100.00
66664;BME280;59683;51.428;-1.994;2023-03-13T04:37:16;98339.31;;;10.58;100.00
66664;BME280;59683;51.428;-1.994;2023-03-13T04:39:42;98342.66;;;10.52;100.00
66664;BME280;59683;51.428;-1.994;2023-03-13T04:42:09;98336.28;;;10.46;100.00
66664;BME280;59683;51.428;-1.994;2023-03-13T04:44:35;98327.06;;;10.42;100.00
66664;BME280;59683;51.428;-1.994;2023-03-13T04:47:00;98320.81;;;10.35;100.00
66664;BME280;59683;51.428;-1.994;2023-03-13T04:49:26;98332.97;;;10.44;100.00
66664;BME280;59683;51.428;-1.994;2023-03-13T04:51:51;98326.03;;;10.43;100.00
66664;BME280;59683;51.428;-1.994;2023-03-13T04:54:16;98332.09;;;10.52;100.00
66664;BME280;59683;51.428;-1.994;2023-03-13T04:56:42;98329.97;;;10.47;100.00
66664;BME280;59683;51.428;-1.994;2023-03-13T04:59:08;98324.97;;;10.52;100.00
66664;BME280;59683;51.428;-1.994;2023-03-13T05:01:33;98322.66;;;10.49;100.00
66664;BME280;59683;51.428;-1.994;2023-03-13T05:03:59;98317.91;;;10.44;100.00
66664;BME280;59683;51.428;-1.994;2023-03-13T05:06:25;98309.63;;;10.48;100.00
66664;BME280;59683;51.428;-1.994;2023-03-13T05:08:50;98312.41;;;10.54;100.00
66664;BME280;59683;51.428;-1.994;2023-03-13T05:11:15;98307.28;;;10.53;100.00
66664;BME280;59683;51.428;-1.994;2023-03-13T05:13:41;98293.97;;;10.46;100.00
66664;BME280;59683;51.428;-1.994;2023-03-13T05:16:06;98305.97;;;10.49;100.00
66664;BME280;59683;51.428;-1.994;2023-03-13T05:18:32;98291.13;;;10.48;100.00
66664;BME280;59683;51.428;-1.994;2023-03-13T05:20:57;98288.84;;;10.44;100.00
66664;BME280;59683;51.428;-1.994;2023-03-13T05:23:23;98291.66;;;10.43;100.00
66664;BME280;59683;51.428;-1.994;2023-03-13T05:25:48;98282.09;;;10.42;100.00
66664;BME280;59683;51.428;-1.994;2023-03-13T05:28:13;98296.00;;;10.36;100.00
66664;BME280;59683;51.428;-1.994;2023-03-13T05:30:39;98283.53;;;10.21;100.00
66664;BME280;59683;51.428;-1.994;2023-03-13T05:33:04;98295.25;;;10.27;100.00
66664;BME280;59683;51.428;-1.994;2023-03-13T05:35:30;98293.75;;;10.25;100.00
66664;BME280;59683;51.428;-1.994;2023-03-13T05:37:55;98296.94;;;10.20;100.00
66664;BME280;59683;51.428;-1.994;2023-03-13T05:40:20;98276.91;;;10.26;100.00
66664;BME280;59683;51.428;-1.994;2023-03-13T05:42:46;98284.03;;;10.25;100.00
66664;BME280;59683;51.428;-1.994;2023-03-13T05:45:11;98279.72;;;10.24;100.00
66664;BME280;59683;51.428;-1.994;2023-03-13T05:47:38;98260.09;;;10.18;100.00
66664;BME280;59683;51.428;-1.994;2023-03-13T05:50:05;98254.63;;;10.20;100.00
66664;BME280;59683;51.428;-1.994;2023-03-13T05:52:31;98256.69;;;10.10;100.00
66664;BME280;59683;51.428;-1.994;2023-03-13T05:54:57;98256.50;;;10.11;100.00
66664;BME280;59683;51.428;-1.994;2023-03-13T05:57:22;98251.88;;;10.13;100.00
66664;BME280;59683;51.428;-1.994;2023-03-13T05:59:48;98243.28;;;10.11;100.00
66664;BME280;59683;51.428;-1.994;2023-03-13T06:02:13;98245.09;;;10.11;100.00
66664;BME280;59683;51.428;-1.994;2023-03-13T06:04:39;98235.66;;;10.16;100.00
66664;BME280;59683;51.428;-1.994;2023-03-13T06:07:04;98243.06;;;10.21;100.00
66664;BME280;59683;51.428;-1.994;2023-03-13T06:09:30;98230.31;;;10.25;100.00
66664;BME280;59683;51.428;-1.994;2023-03-13T06:11:55;98218.78;;;10.17;100.00
66664;BME280;59683;51.428;-1.994;2023-03-13T06:14:20;98224.69;;;10.05;100.00
66664;BME280;59683;51.428;-1.994;2023-03-13T06:16:46;98237.13;;;9.96;100.00
66664;BME280;59683;51.428;-1.994;2023-03-13T06:19:11;98221.69;;;9.85;100.00
66664;BME280;59683;51.428;-1.994;2023-03-13T06:21:37;98210.94;;;9.86;100.00
66664;BME280;59683;51.428;-1.994;2023-03-13T06:24:03;98217.47;;;9.98;100.00
66664;BME280;59683;51.428;-1.994;2023-03-13T06:26:28;98203.78;;;9.95;100.00
66664;BME280;59683;51.428;-1.994;2023-03-13T06:28:55;98192.38;;;9.94;100.00
66664;BME280;59683;51.428;-1.994;2023-03-13T06:31:20;98173.66;;;10.04;100.00
66664;BME280;59683;51.428;-1.994;2023-03-13T06:33:46;98161.44;;;10.03;100.00
66664;BME280;59683;51.428;-1.994;2023-03-13T06:36:11;98181.59;;;10.19;100.00
66664;BME280;59683;51.428;-1.994;2023-03-13T06:38:37;98159.63;;;10.18;100.00
66664;BME280;59683;51.428;-1.994;2023-03-13T06:41:03;98153.53;;;10.18;100.00
66664;BME280;59683;51.428;-1.994;2023-03-13T06:43:28;98157.28;;;10.24;100.00
66664;BME280;59683;51.428;-1.994;2023-03-13T06:45:54;98139.59;;;10.24;100.00
66664;BME280;59683;51.428;-1.994;2023-03-13T06:48:20;98153.06;;;10.14;100.00
66664;BME280;59683;51.428;-1.994;2023-03-13T06:50:47;98148.13;;;10.11;100.00
66664;BME280;59683;51.428;-1.994;2023-03-13T06:53:19;98160.38;;;10.12;100.00
66664;BME280;59683;51.428;-1.994;2023-03-13T06:55:45;98157.53;;;10.14;100.00
66664;BME280;59683;51.428;-1.994;2023-03-13T06:58:11;98164.00;;;10.11;100.00
66664;BME280;59683;51.428;-1.994;2023-03-13T07:00:36;98162.63;;;10.15;100.00
66664;BME280;59683;51.428;-1.994;2023-03-13T07:03:04;98171.28;;;10.09;100.00
66664;BME280;59683;51.428;-1.994;2023-03-13T07:05:29;98165.88;;;10.03;100.00
66664;BME280;59683;51.428;-1.994;2023-03-13T07:07:55;98177.34;;;9.95;100.00
66664;BME280;59683;51.428;-1.994;2023-03-13T07:10:20;98184.47;;;9.94;100.00
66664;BME280;59683;51.428;-1.994;2023-03-13T07:12:46;98178.00;;;9.97;100.00
66664;BME280;59683;51.428;-1.994;2023-03-13T07:15:11;98177.69;;;9.92;100.00
66664;BME280;59683;51.428;-1.994;2023-03-13T08:12:19;98113.94;;;10.77;100.00
66664;BME280;59683;51.428;-1.994;2023-03-13T08:14:48;98112.91;;;10.78;100.00
66664;BME280;59683;51.428;-1.994;2023-03-13T08:17:46;98119.09;;;11.00;100.00
66664;BME280;59683;51.428;-1.994;2023-03-13T10:59:22;98132.47;;;13.25;100.00
66664;BME280;59683;51.428;-1.994;2023-03-13T11:01:59;98129.16;;;13.23;100.00
66664;BME280;59683;51.428;-1.994;2023-03-13T12:14:20;98098.44;;;17.18;100.00
66664;BME280;59683;51.428;-1.994;2023-03-13T12:16:52;98077.31;;;16.61;100.00
66664;BME280;59683;51.428;-1.994;2023-03-13T12:31:49;98079.34;;;15.02;100.00
66664;BME280;59683;51.428;-1.994;2023-03-13T13:12:21;98030.28;;;14.14;100.00
66664;BME280;59683;51.428;-1.994;2023-03-13T13:24:48;98030.44;;;14.25;100.00
66664;BME280;59683;51.428;-1.994;2023-03-13T13:28:21;98029.09;;;13.83;100.00
66664;BME280;59683;51.428;-1.994;2023-03-13T22:08:04;97799.84;;;8.82;100.00
